createdAt,value
2022-11-15T00:00:32.348Z,96058.91
2022-11-15T00:03:52.785Z,96054.72
2022-11-15T00:07:33.305Z,96065.41
2022-11-15T00:11:00.666Z,96058.56
2022-11-15T00:14:20.554Z,96042.63
2022-11-15T00:17:40.892Z,96041.50
2022-11-15T00:21:07.130Z,96040.66
2022-11-15T00:24:27.202Z,96036.34
2022-11-15T00:27:47.265Z,96039.13
2022-11-15T00:31:12.686Z,96045.50
2022-11-15T00:34:32.989Z,96050.03
2022-11-15T00:37:53.564Z,96044.19
2022-11-15T00:41:13.794Z,96043.22
2022-11-15T00:44:33.776Z,96038.78
2022-11-15T00:47:53.964Z,96038.06
2022-11-15T00:51:14.026Z,96037.78
2022-11-15T00:54:33.957Z,96030.72
2022-11-15T00:57:54.087Z,96028.22
2022-11-15T01:01:15.568Z,96026.03
2022-11-15T01:04:35.826Z,96012.22
2022-11-15T01:07:57.041Z,96017.28
2022-11-15T01:11:17.357Z,96013.91
2022-11-15T01:14:37.320Z,96008.88
2022-11-15T01:17:57.338Z,96007.19
2022-11-15T01:21:20.089Z,95999.06
2022-11-15T01:24:40.113Z,96003.09
2022-11-15T01:28:00.243Z,96003.25
2022-11-15T01:31:22.032Z,96007.81
2022-11-15T01:34:41.912Z,96008.78
2022-11-15T01:38:02.094Z,96008.03
2022-11-15T01:41:31.571Z,96017.06
2022-11-15T01:44:55.690Z,96008.53
2022-11-15T01:48:15.674Z,96008.06
2022-11-15T01:51:36.111Z,96002.91
2022-11-15T01:55:03.079Z,96000.50
2022-11-15T01:58:23.383Z,95998.22
2022-11-15T02:01:44.108Z,95999.44
2022-11-15T02:05:04.886Z,95983.59
2022-11-15T02:08:25.190Z,95992.97
2022-11-15T02:11:47.926Z,95991.28
2022-11-15T02:15:09.765Z,95986.34
2022-11-15T02:18:36.412Z,95975.22
2022-11-15T02:22:28.924Z,95973.75
2022-11-15T02:26:13.568Z,95969.56
2022-11-15T02:30:04.625Z,95966.44
2022-11-15T02:33:37.455Z,95967.75
2022-11-15T02:37:03.302Z,95963.81
2022-11-15T02:40:52.156Z,95946.88
2022-11-15T02:44:22.639Z,95950.97
2022-11-15T02:47:47.001Z,95946.88
2022-11-15T02:51:07.840Z,95938.38
2022-11-15T02:54:32.771Z,95925.91
2022-11-15T02:58:00.747Z,95924.97
2022-11-15T03:01:47.623Z,95913.09
2022-11-15T03:05:16.239Z,95921.97
2022-11-15T03:08:51.097Z,95922.19
2022-11-15T03:12:22.722Z,95925.19
2022-11-15T03:15:50.961Z,95924.34
2022-11-15T03:19:18.174Z,95916.31
2022-11-15T03:22:43.382Z,95919.81
2022-11-15T03:26:08.231Z,95912.00
2022-11-15T03:29:34.930Z,95912.94
2022-11-15T03:32:57.865Z,95916.53
2022-11-15T03:36:19.214Z,95909.59
2022-11-15T03:39:39.449Z,95904.31
2022-11-15T03:43:08.672Z,95918.44
2022-11-15T03:46:47.813Z,95903.00
2022-11-15T03:50:12.820Z,95913.53
2022-11-15T03:53:33.687Z,95913.91
2022-11-15T03:56:54.181Z,95905.28
2022-11-15T04:00:14.437Z,95901.06
2022-11-15T04:03:35.047Z,95896.16
2022-11-15T04:06:55.387Z,95898.91
2022-11-15T04:10:16.317Z,95897.22
2022-11-15T04:13:36.268Z,95877.91
2022-11-15T04:16:56.535Z,95885.56
2022-11-15T04:20:55.133Z,95882.09
2022-11-15T04:24:15.589Z,95885.00
2022-11-15T04:27:35.686Z,95876.34
2022-11-15T04:30:55.571Z,95884.38
2022-11-15T04:34:16.009Z,95877.66
2022-11-15T04:37:36.050Z,95870.22
2022-11-15T04:40:56.075Z,95867.59
2022-11-15T04:44:17.379Z,95882.66
2022-11-15T04:47:37.565Z,95881.00
2022-11-15T04:50:57.855Z,95869.75
2022-11-15T04:54:18.019Z,95859.44
2022-11-15T04:57:39.100Z,95863.75
2022-11-15T05:00:59.145Z,95851.53
2022-11-15T05:04:22.069Z,95847.44
2022-11-15T05:07:41.970Z,95849.97
2022-11-15T05:11:02.214Z,95839.88
2022-11-15T05:14:22.296Z,95840.84
2022-11-15T05:17:42.523Z,95839.16
2022-11-15T05:21:07.834Z,95846.22
2022-11-15T05:24:27.887Z,95853.53
2022-11-15T05:27:48.060Z,95844.78
2022-11-15T05:31:11.073Z,95831.63
2022-11-15T05:34:31.246Z,95827.56
2022-11-15T05:37:51.443Z,95821.19
2022-11-15T05:41:12.798Z,95830.03
2022-11-15T05:44:34.512Z,95821.66
2022-11-15T05:47:56.682Z,95826.09
2022-11-15T05:51:19.893Z,95822.63
2022-11-15T05:54:40.692Z,95824.66
2022-11-15T05:58:01.716Z,95817.72
2022-11-15T06:01:22.531Z,95816.66
2022-11-15T06:04:42.791Z,95816.66
2022-11-15T06:08:02.904Z,95820.94
2022-11-15T06:11:23.200Z,95812.44
2022-11-15T06:14:43.418Z,95821.91
2022-11-15T06:18:03.705Z,95822.97
2022-11-15T06:21:24.453Z,95825.50
2022-11-15T06:24:44.977Z,95829.44
2022-11-15T06:28:05.232Z,95821.66
2022-11-15T06:31:25.303Z,95822.50
2022-11-15T06:34:45.615Z,95834.81
2022-11-15T06:38:08.396Z,95849.69
2022-11-15T06:41:28.266Z,95843.56
2022-11-15T06:44:48.418Z,95837.56
2022-11-15T06:48:08.389Z,95851.47
2022-11-15T06:51:28.540Z,95859.38
2022-11-15T06:54:48.737Z,95846.31
2022-11-15T06:58:08.678Z,95848.84
2022-11-15T07:01:28.687Z,95833.63
2022-11-15T07:04:48.736Z,95837.47
2022-11-15T07:08:08.853Z,95840.94
2022-11-15T07:11:29.223Z,95834.81
2022-11-15T07:14:49.140Z,95841.56
2022-11-15T07:18:09.403Z,95837.84
2022-11-15T07:21:29.800Z,95830.88
2022-11-15T07:24:49.830Z,95831.41
2022-11-15T07:28:10.244Z,95821.47
2022-11-15T07:31:30.665Z,95819.44
2022-11-15T07:34:50.602Z,95812.84
2022-11-15T07:38:10.693Z,95803.75
2022-11-15T07:41:30.994Z,95812.00
2022-11-15T07:44:51.024Z,95808.09
2022-11-15T07:48:11.498Z,95807.72
2022-11-15T07:51:31.450Z,95808.19
2022-11-15T07:54:51.621Z,95812.19
2022-11-15T07:58:12.879Z,95812.75
2022-11-15T08:01:33.027Z,95811.31
2022-11-15T08:04:53.355Z,95803.78
2022-11-15T08:08:13.587Z,95798.00
2022-11-15T08:11:33.724Z,95793.09
2022-11-15T08:14:53.707Z,95785.41
2022-11-15T08:18:16.722Z,95780.97
2022-11-15T08:21:38.306Z,95762.56
2022-11-15T08:24:58.527Z,95761.84
2022-11-15T08:28:18.961Z,95760.25
2022-11-15T08:31:39.689Z,95760.31
2022-11-15T08:34:59.519Z,95763.16
2022-11-15T08:38:19.495Z,95770.34
2022-11-15T08:41:39.545Z,95742.03
2022-11-15T08:45:00.200Z,95755.34
2022-11-15T08:48:20.518Z,95755.66
2022-11-15T08:51:40.868Z,95748.13
2022-11-15T08:55:01.219Z,95741.94
2022-11-15T08:58:21.433Z,95731.84
2022-11-15T09:01:41.809Z,95735.38
2022-11-15T09:05:02.078Z,95736.00
2022-11-15T09:12:03.118Z,95735.53
2022-11-15T09:15:23.591Z,95716.88
2022-11-15T09:18:43.780Z,95732.22
2022-11-15T09:22:07.664Z,95728.06
2022-11-15T09:25:28.172Z,95729.78
2022-11-15T09:28:48.209Z,95724.34
2022-11-15T09:32:08.396Z,95724.91
2022-11-15T09:35:28.431Z,95717.69
2022-11-15T09:38:48.608Z,95717.69
2022-11-15T09:42:46.955Z,95708.88
2022-11-15T09:46:55.045Z,95708.03
2022-11-15T09:50:28.276Z,95708.03
2022-11-15T09:54:18.619Z,95695.06
2022-11-15T09:57:16.332Z,95683.75
2022-11-15T10:00:45.345Z,95684.84
2022-11-15T10:03:46.590Z,95682.44
2022-11-15T10:07:05.410Z,95678.38
2022-11-15T10:10:35.000Z,95671.06
2022-11-15T10:13:42.321Z,95665.72
2022-11-15T10:16:57.794Z,95650.91
2022-11-15T10:20:08.420Z,95647.56
2022-11-15T10:23:14.314Z,95636.06
2022-11-15T10:26:17.716Z,95628.84
2022-11-15T10:29:27.148Z,95628.81
2022-11-15T10:32:29.447Z,95617.97
2022-11-15T10:35:31.565Z,95618.03
2022-11-15T10:38:33.524Z,95617.28
2022-11-15T10:41:38.845Z,95611.91
2022-11-15T10:44:44.015Z,95603.69
2022-11-15T10:47:45.515Z,95601.94
2022-11-15T10:50:49.551Z,95598.53
2022-11-15T10:53:52.547Z,95594.81
2022-11-15T10:56:57.119Z,95582.38
2022-11-15T11:00:01.969Z,95577.19
2022-11-15T11:03:09.344Z,95574.91
2022-11-15T11:06:16.869Z,95563.88
2022-11-15T11:09:33.720Z,95556.28
2022-11-15T11:12:35.543Z,95550.31
2022-11-15T11:15:37.130Z,95545.88
2022-11-15T11:19:17.588Z,95551.22
2022-11-15T11:22:35.694Z,95536.09
2022-11-15T11:25:47.510Z,95539.75
2022-11-15T11:29:05.628Z,95532.16
2022-11-15T11:32:38.426Z,95533.31
2022-11-15T11:35:54.199Z,95532.66
2022-11-15T11:39:26.995Z,95529.34
2022-11-15T11:42:40.918Z,95531.88
2022-11-15T11:45:59.654Z,95522.75
2022-11-15T11:49:22.372Z,95518.44
2022-11-15T11:52:40.724Z,95511.44
2022-11-15T11:55:50.832Z,95508.25
2022-11-15T11:58:54.679Z,95507.59
2022-11-15T12:01:56.475Z,95505.09
2022-11-15T12:05:12.919Z,95497.09
2022-11-15T12:08:29.908Z,95503.09
2022-11-15T12:11:53.359Z,95509.41
2022-11-15T12:15:02.019Z,95506.38
2022-11-15T12:21:49.886Z,95504.38
2022-11-15T12:25:02.036Z,95507.53
2022-11-15T12:28:34.929Z,95493.69
2022-11-15T12:31:46.781Z,95494.69
2022-11-15T12:34:51.209Z,95502.31
2022-11-15T12:37:56.207Z,95499.16
2022-11-15T12:41:15.917Z,95496.13
2022-11-15T12:44:32.828Z,95495.44
2022-11-15T12:47:34.375Z,95489.44
2022-11-15T12:50:55.213Z,95483.41
2022-11-15T12:53:56.744Z,95474.03
2022-11-15T12:57:04.209Z,95481.19
2022-11-15T13:00:08.796Z,95479.84
2022-11-15T13:03:24.790Z,95481.66
2022-11-15T13:06:49.774Z,95471.59
2022-11-15T13:09:52.812Z,95478.44
2022-11-15T13:12:57.705Z,95478.09
2022-11-15T13:16:02.742Z,95477.56
2022-11-15T13:23:03.739Z,95484.03
2022-11-15T13:26:17.471Z,95474.84
2022-11-15T13:29:21.168Z,95472.47
2022-11-15T13:32:23.310Z,95478.47
2022-11-15T13:35:28.085Z,95479.78
2022-11-15T13:38:32.756Z,95483.09
2022-11-15T13:41:36.816Z,95478.22
2022-11-15T13:44:38.509Z,95483.22
2022-11-15T13:47:40.073Z,95470.53
2022-11-15T13:50:41.884Z,95466.53
2022-11-15T13:53:48.513Z,95459.34
2022-11-15T13:56:59.022Z,95469.19
2022-11-15T14:00:25.296Z,95466.88
2022-11-15T14:03:30.960Z,95470.06
2022-11-15T14:06:32.933Z,95460.75
2022-11-15T14:09:39.708Z,95462.91
2022-11-15T14:12:51.829Z,95463.47
2022-11-15T14:15:53.447Z,95454.00
2022-11-15T14:18:55.014Z,95456.69
2022-11-15T14:22:17.874Z,95454.72
2022-11-15T14:25:31.690Z,95462.88
2022-11-15T14:28:37.578Z,95466.22
2022-11-15T14:31:43.976Z,95465.06
2022-11-15T14:34:46.665Z,95467.72
2022-11-15T14:37:48.533Z,95464.69
2022-11-15T14:40:50.074Z,95461.00
2022-11-15T14:43:53.111Z,95451.34
2022-11-15T14:46:54.616Z,95440.03
2022-11-15T14:49:56.221Z,95448.03
2022-11-15T14:52:57.802Z,95437.53
2022-11-15T14:55:59.364Z,95421.22
2022-11-15T14:59:01.163Z,95421.09
2022-11-15T15:02:02.784Z,95421.78
2022-11-15T15:05:32.466Z,95418.16
2022-11-15T15:08:34.176Z,95422.53
2022-11-15T15:11:35.889Z,95423.22
2022-11-15T15:14:37.534Z,95424.94
2022-11-15T15:17:39.142Z,95412.47
2022-11-15T15:20:42.828Z,95402.81
2022-11-15T15:23:44.345Z,95411.50
2022-11-15T15:26:45.848Z,95412.22
2022-11-15T15:29:47.407Z,95404.91
2022-11-15T15:32:49.116Z,95399.44
2022-11-15T15:35:50.731Z,95397.47
2022-11-15T15:38:53.453Z,95394.00
2022-11-15T15:41:57.519Z,95394.69
2022-11-15T15:44:59.142Z,95389.00
2022-11-15T15:48:00.669Z,95395.03
2022-11-15T15:51:07.286Z,95395.72
2022-11-15T15:54:12.764Z,95393.56
2022-11-15T15:57:15.232Z,95382.91
2022-11-15T16:00:17.714Z,95380.09
2022-11-15T16:03:19.229Z,95385.28
2022-11-15T16:06:40.243Z,95371.59
2022-11-15T16:10:00.323Z,95381.25
2022-11-15T16:13:01.999Z,95374.13
2022-11-15T16:16:03.537Z,95373.28
2022-11-15T16:19:05.601Z,95359.31
2022-11-15T16:22:07.091Z,95358.16
2022-11-15T16:25:09.054Z,95358.78
2022-11-15T16:28:32.249Z,95351.31
2022-11-15T16:31:34.069Z,95347.16
2022-11-15T16:34:40.507Z,95345.00
2022-11-15T16:37:46.439Z,95346.00
2022-11-15T16:40:48.136Z,95340.19
2022-11-15T16:43:49.713Z,95338.53
2022-11-15T16:46:54.636Z,95333.53
2022-11-15T16:49:56.156Z,95325.56
2022-11-15T16:52:59.277Z,95334.72
2022-11-15T16:56:00.793Z,95331.88
2022-11-15T16:59:02.394Z,95332.06
2022-11-15T17:02:03.996Z,95320.06
2022-11-15T17:05:10.388Z,95319.25
2022-11-15T17:08:13.458Z,95318.56
2022-11-15T17:11:17.589Z,95315.41
2022-11-15T17:14:19.332Z,95312.25
2022-11-15T17:17:21.588Z,95311.75
2022-11-15T17:20:25.493Z,95306.44
2022-11-15T17:23:27.020Z,95308.59
2022-11-15T17:26:31.122Z,95321.06
2022-11-15T17:29:33.081Z,95316.25
2022-11-15T17:32:37.381Z,95314.75
2022-11-15T17:35:38.965Z,95305.78
2022-11-15T17:38:43.651Z,95312.59
2022-11-15T17:41:45.271Z,95301.47
2022-11-15T17:44:46.835Z,95312.28
2022-11-15T17:47:48.436Z,95302.94
2022-11-15T17:51:05.323Z,95302.47
2022-11-15T17:54:07.067Z,95291.16
2022-11-15T17:57:08.611Z,95296.63
2022-11-15T18:00:11.088Z,95296.97
2022-11-15T18:03:13.086Z,95289.31
2022-11-15T18:06:15.680Z,95290.47
2022-11-15T18:09:17.198Z,95277.38
2022-11-15T18:12:19.768Z,95269.53
2022-11-15T18:15:21.537Z,95273.19
2022-11-15T18:18:23.049Z,95271.53
2022-11-15T18:21:29.612Z,95269.03
2022-11-15T18:24:34.719Z,95263.06
2022-11-15T18:27:36.448Z,95262.22
2022-11-15T18:30:38.773Z,95254.56
2022-11-15T18:33:40.340Z,95250.94
2022-11-15T18:36:42.766Z,95258.06
2022-11-15T18:39:45.188Z,95266.03
2022-11-15T18:42:48.085Z,95254.94
2022-11-15T18:45:49.641Z,95251.44
2022-11-15T18:48:52.637Z,95247.09
2022-11-15T18:51:54.238Z,95231.00
2022-11-15T18:54:55.750Z,95240.13
2022-11-15T18:57:57.239Z,95227.84
2022-11-15T19:01:06.643Z,95223.50
2022-11-15T19:04:13.305Z,95230.00
2022-11-15T19:07:15.084Z,95225.19
2022-11-15T19:10:16.669Z,95216.06
2022-11-15T19:13:18.140Z,95214.88
2022-11-15T19:16:19.977Z,95214.38
2022-11-15T19:19:24.495Z,95217.72
2022-11-15T19:22:26.064Z,95209.06
2022-11-15T19:25:28.880Z,95203.25
2022-11-15T19:28:31.028Z,95195.28
2022-11-15T19:31:33.211Z,95201.56
2022-11-15T19:34:34.755Z,95199.94
2022-11-15T19:37:36.327Z,95194.78
2022-11-15T19:40:38.006Z,95195.78
2022-11-15T19:43:39.785Z,95195.94
2022-11-15T19:46:42.052Z,95196.78
2022-11-15T19:49:43.647Z,95203.06
2022-11-15T19:52:45.524Z,95206.72
2022-11-15T19:55:57.341Z,95197.09
2022-11-15T19:58:59.054Z,95199.75
2022-11-15T20:02:00.589Z,95190.13
2022-11-15T20:05:02.173Z,95178.50
2022-11-15T20:08:03.798Z,95176.19
2022-11-15T20:11:05.797Z,95168.38
2022-11-15T20:14:09.560Z,95173.69
2022-11-15T20:17:11.118Z,95171.84
2022-11-15T20:20:12.785Z,95175.50
2022-11-15T20:23:14.521Z,95169.34
2022-11-15T20:26:16.321Z,95169.34
2022-11-15T20:29:17.942Z,95165.22
2022-11-15T20:32:19.833Z,95162.72
2022-11-15T20:35:21.393Z,95160.91
2022-11-15T20:38:23.424Z,95153.94
2022-11-15T20:41:25.645Z,95137.97
2022-11-15T20:44:27.383Z,95149.28
2022-11-15T20:47:31.437Z,95140.28
2022-11-15T20:50:42.658Z,95127.00
2022-11-15T20:53:47.921Z,95129.50
2022-11-15T20:56:49.430Z,95119.72
2022-11-15T20:59:50.944Z,95117.06
2022-11-15T21:02:53.123Z,95113.56
2022-11-15T21:05:54.782Z,95100.28
2022-11-15T21:09:14.914Z,95092.81
2022-11-15T21:12:16.811Z,95096.78
2022-11-15T21:15:18.822Z,95081.84
2022-11-15T21:18:20.927Z,95072.88
2022-11-15T21:21:22.502Z,95071.88
2022-11-15T21:24:24.723Z,95053.44
2022-11-15T21:27:26.404Z,95066.41
2022-11-15T21:30:28.355Z,95061.09
2022-11-15T21:33:29.876Z,95070.72
2022-11-15T21:36:31.820Z,95076.88
2022-11-15T21:39:33.889Z,95076.88
2022-11-15T21:42:35.430Z,95071.72
2022-11-15T21:45:37.040Z,95063.44
2022-11-15T21:48:38.577Z,95067.91
2022-11-15T21:51:40.709Z,95061.25
2022-11-15T21:54:44.442Z,95048.00
2022-11-15T21:57:45.996Z,95042.69
2022-11-15T22:01:06.220Z,95043.19
2022-11-15T22:04:07.889Z,95035.75
2022-11-15T22:07:09.563Z,95030.06
2022-11-15T22:10:11.244Z,95024.81
2022-11-15T22:13:13.074Z,95018.97
2022-11-15T22:16:14.618Z,95014.19
2022-11-15T22:19:16.332Z,95018.50
2022-11-15T22:22:17.863Z,95002.41
2022-11-15T22:25:19.434Z,94995.75
2022-11-15T22:28:22.206Z,94996.25
2022-11-15T22:31:23.851Z,94990.97
2022-11-15T22:34:25.435Z,95005.53
2022-11-15T22:37:26.971Z,94993.25
2022-11-15T22:40:28.460Z,95001.06
2022-11-15T22:43:30.100Z,94989.47
2022-11-15T22:46:31.623Z,94985.66
2022-11-15T22:49:33.197Z,94975.69
2022-11-15T22:52:35.331Z,94980.66
2022-11-15T22:55:41.012Z,94963.59
2022-11-15T22:58:42.522Z,94961.75
2022-11-15T23:01:44.393Z,94957.94
2022-11-15T23:04:46.175Z,94957.59
2022-11-15T23:07:47.739Z,94955.78
2022-11-15T23:11:07.814Z,94950.13
2022-11-15T23:14:10.498Z,94942.66
2022-11-15T23:17:12.267Z,94942.81
2022-11-15T23:20:36.875Z,94931.66
2022-11-15T23:23:36.201Z,94927.69
2022-11-15T23:26:38.571Z,94916.88
2022-11-15T23:29:58.928Z,94916.38
2022-11-15T23:33:19.303Z,94909.88
2022-11-15T23:36:20.816Z,94910.38
2022-11-15T23:39:22.635Z,94909.38
2022-11-15T23:42:24.207Z,94904.75
2022-11-15T23:45:25.737Z,94902.56
2022-11-15T23:48:27.839Z,94894.91
2022-11-15T23:51:29.404Z,94895.72
2022-11-15T23:54:31.041Z,94895.38
2022-11-15T23:57:32.623Z,94894.03
